createdAt,value
2019-05-01T00:01:00.215Z,11.00
2019-05-01T00:04:01.566Z,10.90
2019-05-01T00:06:48.726Z,10.90
2019-05-01T00:09:28.122Z,10.90
2019-05-01T00:12:07.162Z,10.80
2019-05-01T00:14:46.868Z,10.70
2019-05-01T00:17:18.154Z,10.60
2019-05-01T00:20:03.615Z,10.60
2019-05-01T00:22:34.509Z,10.50
2019-05-01T00:25:05.563Z,10.50
2019-05-01T00:27:40.358Z,10.50
2019-05-01T00:30:30.060Z,10.40
2019-05-01T00:33:14.343Z,10.50
2019-05-01T00:36:03.332Z,10.50
2019-05-01T00:38:34.295Z,10.50
2019-05-01T00:41:21.789Z,10.50
2019-05-01T00:44:05.728Z,10.50
2019-05-01T00:46:36.455Z,10.50
2019-05-01T00:49:11.107Z,10.50
2019-05-01T00:51:44.306Z,10.50
2019-05-01T00:54:24.898Z,10.50
2019-05-01T00:57:19.828Z,10.50
2019-05-01T01:00:21.587Z,10.40
2019-05-01T01:03:05.295Z,10.40
2019-05-01T01:05:52.296Z,10.50
2019-05-01T01:08:35.239Z,10.40
2019-05-01T01:11:16.745Z,10.30
2019-05-01T01:13:59.452Z,10.20
2019-05-01T01:16:40.119Z,10.20
2019-05-01T01:19:10.134Z,10.20
2019-05-01T01:21:40.354Z,10.20
2019-05-01T01:24:13.842Z,10.20
2019-05-01T01:26:44.337Z,10.10
2019-05-01T01:29:15.226Z,10.10
2019-05-01T01:31:45.536Z,10.00
2019-05-01T01:34:25.490Z,9.90
2019-05-01T01:36:58.690Z,9.90
2019-05-01T01:39:29.118Z,9.90
2019-05-01T01:42:02.289Z,9.90
2019-05-01T01:44:49.196Z,9.90
2019-05-01T01:47:30.228Z,9.80
2019-05-01T01:50:09.959Z,9.80
2019-05-01T01:52:48.524Z,9.80
2019-05-01T01:55:27.857Z,9.70
2019-05-01T01:58:06.005Z,9.80
2019-05-01T02:00:49.979Z,9.70
2019-05-01T02:03:20.903Z,9.70
2019-05-01T02:05:51.431Z,9.60
2019-05-01T02:08:21.465Z,9.40
2019-05-01T02:10:53.384Z,9.40
2019-05-01T02:13:23.753Z,9.40
2019-05-01T02:15:54.207Z,9.40
2019-05-01T02:18:24.178Z,9.40
2019-05-01T02:20:54.094Z,9.30
2019-05-01T02:23:24.214Z,9.30
2019-05-01T02:26:04.583Z,9.20
2019-05-01T02:28:59.236Z,9.10
2019-05-01T02:31:38.896Z,9.10
2019-05-01T02:34:14.164Z,9.00
2019-05-01T02:36:55.917Z,9.00
2019-05-01T02:39:32.950Z,8.90
2019-05-01T02:42:04.438Z,8.80
2019-05-01T02:44:42.586Z,8.80
2019-05-01T02:47:20.916Z,8.80
2019-05-01T02:50:12.738Z,8.90
2019-05-01T02:52:52.202Z,8.90
2019-05-01T02:55:37.068Z,8.90
2019-05-01T02:58:08.074Z,8.90
2019-05-01T03:00:42.426Z,8.70
2019-05-01T03:03:13.133Z,8.70
2019-05-01T03:05:49.534Z,8.70
2019-05-01T03:08:21.199Z,8.60
2019-05-01T03:10:54.636Z,8.60
2019-05-01T03:13:28.355Z,8.60
2019-05-01T03:16:03.132Z,8.70
2019-05-01T03:19:02.390Z,8.70
2019-05-01T03:21:57.695Z,8.70
2019-05-01T03:27:49.961Z,8.60
2019-05-01T03:30:30.664Z,8.60
2019-05-01T03:33:01.355Z,8.70
2019-05-01T03:35:31.563Z,8.70
2019-05-01T03:38:16.149Z,8.70
2019-05-01T03:41:06.332Z,8.60
2019-05-01T03:43:37.373Z,8.70
2019-05-01T03:46:07.539Z,8.70
2019-05-01T03:48:38.485Z,8.70
2019-05-01T03:51:08.208Z,8.60
2019-05-01T03:53:38.899Z,8.70
2019-05-01T03:56:09.260Z,8.80
2019-05-01T03:58:39.532Z,8.80
2019-05-01T04:01:18.952Z,8.80
2019-05-01T04:03:51.964Z,8.80
2019-05-01T04:06:22.470Z,8.80
2019-05-01T04:08:55.393Z,8.70
2019-05-01T04:11:25.537Z,8.80
2019-05-01T04:13:55.988Z,8.90
2019-05-01T04:16:26.138Z,8.90
2019-05-01T04:18:56.746Z,8.90
2019-05-01T04:21:30.665Z,8.90
2019-05-01T04:24:01.496Z,8.90
2019-05-01T04:26:31.678Z,8.90
2019-05-01T04:29:20.721Z,8.90
2019-05-01T04:31:55.322Z,8.90
2019-05-01T04:34:44.307Z,8.90
2019-05-01T04:37:16.148Z,9.00
2019-05-01T04:39:46.645Z,9.00
2019-05-01T04:42:16.993Z,9.00
2019-05-01T04:44:47.101Z,9.00
2019-05-01T04:47:17.460Z,8.90
2019-05-01T04:49:47.792Z,9.10
2019-05-01T04:52:24.629Z,9.20
2019-05-01T04:54:55.163Z,9.10
2019-05-01T04:57:25.382Z,9.10
2019-05-01T04:59:55.504Z,9.20
2019-05-01T05:02:37.971Z,9.10
2019-05-01T05:05:08.789Z,9.00
2019-05-01T05:07:38.869Z,9.00
2019-05-01T05:10:09.479Z,9.10
2019-05-01T05:12:53.288Z,9.10
2019-05-01T05:15:37.035Z,9.20
2019-05-01T05:18:07.348Z,9.30
2019-05-01T05:20:37.421Z,9.30
2019-05-01T05:23:07.116Z,9.30
2019-05-01T05:25:37.349Z,9.40
2019-05-01T05:28:11.220Z,9.30
2019-05-01T05:30:50.792Z,9.20
2019-05-01T05:33:22.359Z,9.10
2019-05-01T05:35:54.200Z,9.10
2019-05-01T05:38:53.314Z,9.10
2019-05-01T05:41:24.074Z,9.10
2019-05-01T05:43:54.264Z,9.00
2019-05-01T05:46:25.081Z,9.00
2019-05-01T05:48:55.431Z,9.10
2019-05-01T05:51:41.737Z,9.10
2019-05-01T05:54:32.633Z,9.10
2019-05-01T05:57:21.534Z,9.20
2019-05-01T05:59:56.659Z,9.20
2019-05-01T06:02:45.192Z,9.10
2019-05-01T06:05:40.845Z,9.20
2019-05-01T06:08:20.875Z,9.20
2019-05-01T06:11:13.624Z,9.20
2019-05-01T06:14:11.762Z,9.10
2019-05-01T06:17:00.449Z,9.30
2019-05-01T06:19:45.892Z,9.30
2019-05-01T06:22:35.909Z,9.40
2019-05-01T06:25:21.614Z,9.40
2019-05-01T06:27:44.775Z,9.40
2019-05-01T06:30:15.115Z,9.50
2019-05-01T06:32:46.489Z,9.50
2019-05-01T06:35:16.395Z,9.40
2019-05-01T06:38:25.808Z,9.30
2019-05-01T06:41:07.673Z,9.40
2019-05-01T06:44:07.537Z,9.70
2019-05-01T06:47:03.398Z,9.90
2019-05-01T06:49:53.739Z,10.00
2019-05-01T06:52:29.338Z,10.10
2019-05-01T06:55:03.292Z,10.20
2019-05-01T06:57:38.483Z,10.10
2019-05-01T07:00:13.212Z,10.00
2019-05-01T07:02:44.067Z,10.00
2019-05-01T07:05:17.035Z,10.00
2019-05-01T07:07:53.253Z,10.00
2019-05-01T07:10:31.646Z,9.90
2019-05-01T07:12:59.915Z,9.90
2019-05-01T07:15:28.555Z,9.80
2019-05-01T07:18:01.772Z,9.80
2019-05-01T07:20:53.611Z,9.70
2019-05-01T07:23:24.517Z,9.70
2019-05-01T07:25:54.871Z,9.80
2019-05-01T07:28:34.480Z,9.80
2019-05-01T07:31:05.290Z,9.80
2019-05-01T07:33:36.312Z,9.90
2019-05-01T07:36:14.849Z,9.80
2019-05-01T07:38:40.549Z,9.80
2019-05-01T07:41:12.459Z,9.80
2019-05-01T07:43:59.701Z,9.80
2019-05-01T07:46:56.160Z,9.90
2019-05-01T07:49:47.868Z,10.10
2019-05-01T07:52:18.737Z,10.20
2019-05-01T07:54:50.007Z,10.10
2019-05-01T07:57:22.979Z,10.20
2019-05-01T07:59:53.591Z,10.20
2019-05-01T08:02:30.970Z,10.00
2019-05-01T08:05:04.819Z,9.80
2019-05-01T08:07:48.921Z,9.70
2019-05-01T08:10:33.814Z,9.70
2019-05-01T08:13:04.518Z,9.60
2019-05-01T08:15:34.683Z,9.60
2019-05-01T08:18:27.984Z,9.80
2019-05-01T08:21:21.044Z,9.80
2019-05-01T08:23:50.743Z,9.80
2019-05-01T08:26:20.713Z,9.70
2019-05-01T08:29:27.879Z,9.80
2019-05-01T08:32:19.678Z,10.00
2019-05-01T08:34:50.289Z,10.10
2019-05-01T08:37:22.616Z,10.20
2019-05-01T08:39:53.242Z,10.10
2019-05-01T08:42:23.259Z,9.90
2019-05-01T08:45:16.721Z,9.80
2019-05-01T08:47:50.080Z,9.80
2019-05-01T08:50:24.895Z,10.00
2019-05-01T08:52:58.388Z,10.00
2019-05-01T08:55:29.793Z,10.20
2019-05-01T08:57:59.648Z,10.30
2019-05-01T09:00:30.961Z,10.20
2019-05-01T09:03:08.745Z,10.60
2019-05-01T09:05:34.351Z,11.00
2019-05-01T09:08:07.771Z,11.00
2019-05-01T09:10:41.602Z,11.10
2019-05-01T09:13:18.935Z,11.10
2019-05-01T09:15:49.778Z,10.90
2019-05-01T09:18:20.859Z,10.60
2019-05-01T09:20:52.886Z,10.50
2019-05-01T09:23:24.671Z,10.40
2019-05-01T09:26:14.812Z,10.40
2019-05-01T09:28:42.719Z,10.30
2019-05-01T09:31:17.800Z,10.20
2019-05-01T09:33:55.330Z,10.10
2019-05-01T09:36:25.678Z,10.30
2019-05-01T09:39:00.046Z,10.20
2019-05-01T09:41:38.520Z,10.10
2019-05-01T09:44:12.117Z,10.20
2019-05-01T09:46:45.027Z,10.20
2019-05-01T09:49:19.408Z,10.30
2019-05-01T09:52:08.405Z,10.40
2019-05-01T09:55:02.989Z,10.60
2019-05-01T09:57:43.948Z,10.90
2019-05-01T10:00:25.206Z,10.80
2019-05-01T10:02:55.277Z,10.80
2019-05-01T10:05:28.931Z,10.90
2019-05-01T10:08:00.173Z,11.20
2019-05-01T10:10:40.304Z,11.10
2019-05-01T10:13:13.465Z,11.20
2019-05-01T10:15:47.830Z,11.20
2019-05-01T10:18:18.450Z,11.10
2019-05-01T10:20:50.087Z,11.00
2019-05-01T10:23:20.222Z,10.90
2019-05-01T10:25:54.222Z,10.80
2019-05-01T10:28:39.588Z,11.10
2019-05-01T10:31:34.552Z,11.30
2019-05-01T10:34:13.951Z,11.40
2019-05-01T10:36:54.614Z,11.20
2019-05-01T10:39:30.261Z,11.20
2019-05-01T10:42:07.729Z,11.20
2019-05-01T10:44:38.363Z,11.30
2019-05-01T10:47:14.432Z,11.60
2019-05-01T10:49:48.074Z,11.60
2019-05-01T10:52:19.414Z,11.50
2019-05-01T10:54:52.164Z,11.30
2019-05-01T10:57:22.796Z,11.60
2019-05-01T11:00:18.735Z,11.80
2019-05-01T11:02:52.884Z,12.10
2019-05-01T11:05:55.340Z,12.00
2019-05-01T11:08:30.362Z,12.00
2019-05-01T11:11:01.253Z,11.70
2019-05-01T11:13:46.263Z,11.80
2019-05-01T11:16:19.361Z,12.00
2019-05-01T11:18:50.592Z,11.90
2019-05-01T11:21:23.897Z,11.70
2019-05-01T11:23:57.324Z,11.90
2019-05-01T11:26:28.208Z,11.80
2019-05-01T11:28:58.808Z,12.00
2019-05-01T11:31:39.307Z,12.00
2019-05-01T11:34:31.172Z,12.10
2019-05-01T11:37:18.299Z,12.20
2019-05-01T11:40:15.601Z,12.40
2019-05-01T11:42:51.500Z,12.50
2019-05-01T11:45:26.012Z,12.50
2019-05-01T11:47:58.958Z,12.60
2019-05-01T11:50:32.363Z,12.80
2019-05-01T11:53:08.518Z,13.00
2019-05-01T11:55:59.735Z,13.20
2019-05-01T11:58:30.579Z,12.90
2019-05-01T12:01:14.533Z,13.40
2019-05-01T12:03:54.491Z,14.00
2019-05-01T12:06:25.337Z,14.50
2019-05-01T12:08:59.266Z,14.80
2019-05-01T12:11:31.764Z,14.90
2019-05-01T12:14:02.947Z,14.90
2019-05-01T12:16:58.347Z,15.00
2019-05-01T12:19:34.277Z,15.20
2019-05-01T12:22:13.453Z,15.20
2019-05-01T12:24:43.972Z,15.10
2019-05-01T12:27:23.355Z,15.30
2019-05-01T12:30:17.862Z,15.10
2019-05-01T12:32:53.236Z,15.30
2019-05-01T12:38:43.767Z,15.30
2019-05-01T12:41:33.396Z,15.00
2019-05-01T12:44:07.120Z,14.60
2019-05-01T12:46:56.612Z,15.10
2019-05-01T12:49:29.040Z,15.30
2019-05-01T12:52:10.567Z,15.10
2019-05-01T12:55:01.803Z,14.60
2019-05-01T12:58:01.436Z,14.70
2019-05-01T13:00:57.733Z,15.30
2019-05-01T13:03:37.675Z,15.60
2019-05-01T13:06:19.262Z,15.80
2019-05-01T13:09:13.126Z,16.40
2019-05-01T13:11:40.883Z,16.70
2019-05-01T13:14:14.102Z,17.00
2019-05-01T13:16:48.652Z,17.30
2019-05-01T13:19:25.464Z,17.30
2019-05-01T13:21:56.750Z,17.10
2019-05-01T13:24:31.792Z,17.80
2019-05-01T13:27:09.354Z,17.60
2019-05-01T13:29:55.419Z,16.80
2019-05-01T13:32:45.286Z,17.00
2019-05-01T13:35:15.607Z,17.00
2019-05-01T13:37:51.268Z,17.40
2019-05-01T13:40:32.909Z,17.60
2019-05-01T13:43:04.697Z,17.90
2019-05-01T13:45:41.774Z,17.00
2019-05-01T13:48:35.365Z,16.40
2019-05-01T13:51:10.636Z,16.50
2019-05-01T13:53:49.603Z,16.30
2019-05-01T13:56:30.901Z,16.00
2019-05-01T13:59:04.047Z,15.60
2019-05-01T14:01:38.834Z,15.70
2019-05-01T14:04:13.414Z,15.60
2019-05-01T14:06:49.972Z,15.70
2019-05-01T14:09:32.228Z,15.80
2019-05-01T14:12:03.413Z,15.90
2019-05-01T14:14:38.384Z,15.80
2019-05-01T14:17:13.033Z,15.90
2019-05-01T14:19:54.597Z,16.00
2019-05-01T14:22:57.579Z,15.90
2019-05-01T14:26:00.928Z,15.90
2019-05-01T14:28:40.709Z,15.90
2019-05-01T14:31:34.591Z,15.10
2019-05-01T14:34:08.020Z,14.90
2019-05-01T14:36:44.541Z,14.70
2019-05-01T14:39:23.448Z,15.10
2019-05-01T14:41:55.044Z,15.50
2019-05-01T14:44:36.535Z,15.80
2019-05-01T14:47:03.513Z,16.00
2019-05-01T14:49:38.470Z,15.90
2019-05-01T14:52:11.788Z,15.70
2019-05-01T14:54:48.895Z,15.70
2019-05-01T14:57:38.435Z,15.70
2019-05-01T15:00:11.429Z,15.80
2019-05-01T15:02:51.107Z,15.60
2019-05-01T15:05:37.945Z,15.70
2019-05-01T15:08:18.281Z,15.70
2019-05-01T15:10:49.181Z,15.70
2019-05-01T15:13:44.975Z,15.80
2019-05-01T15:16:51.814Z,15.80
2019-05-01T15:19:33.576Z,15.90
2019-05-01T15:22:13.279Z,16.00
2019-05-01T15:24:45.665Z,16.00
2019-05-01T15:27:26.213Z,15.80
2019-05-01T15:29:56.360Z,16.00
2019-05-01T15:32:27.776Z,16.10
2019-05-01T15:35:05.272Z,16.00
2019-05-01T15:37:36.201Z,15.80
2019-05-01T15:40:16.876Z,15.70
2019-05-01T15:43:08.983Z,15.50
2019-05-01T15:45:40.037Z,15.50
2019-05-01T15:48:10.259Z,15.60
2019-05-01T15:50:44.734Z,15.60
2019-05-01T15:53:18.744Z,15.60
2019-05-01T15:55:58.034Z,15.50
2019-05-01T15:58:29.195Z,15.40
2019-05-01T16:01:00.027Z,15.50
2019-05-01T16:03:34.290Z,15.60
2019-05-01T16:06:08.741Z,15.70
2019-05-01T16:08:39.958Z,15.70
2019-05-01T16:11:45.183Z,15.80
2019-05-01T16:14:16.961Z,15.90
2019-05-01T16:16:49.755Z,15.90
2019-05-01T16:19:24.828Z,15.80
2019-05-01T16:21:58.759Z,15.70
2019-05-01T16:25:04.114Z,15.70
2019-05-01T16:27:36.255Z,15.60
2019-05-01T16:30:27.088Z,15.70
2019-05-01T16:32:59.668Z,15.70
2019-05-01T16:35:35.065Z,15.70
2019-05-01T16:38:34.375Z,15.80
2019-05-01T16:41:13.498Z,15.80
2019-05-01T16:43:52.290Z,15.90
2019-05-01T16:46:25.093Z,15.70
2019-05-01T16:49:02.936Z,15.60
2019-05-01T16:51:43.420Z,15.60
2019-05-01T16:54:19.243Z,15.70
2019-05-01T16:56:58.208Z,15.70
2019-05-01T16:59:41.322Z,15.70
2019-05-01T17:02:42.889Z,15.60
2019-05-01T17:05:32.250Z,15.50
2019-05-01T17:08:58.640Z,15.40
2019-05-01T17:11:43.789Z,15.60
2019-05-01T17:14:37.662Z,15.70
2019-05-01T17:17:35.440Z,15.50
2019-05-01T17:20:46.981Z,15.40
2019-05-01T17:23:18.908Z,15.30
2019-05-01T17:25:52.196Z,15.30
2019-05-01T17:28:34.890Z,15.40
2019-05-01T17:31:08.575Z,15.40
2019-05-01T17:33:56.802Z,15.40
2019-05-01T17:36:44.834Z,15.30
2019-05-01T17:39:26.918Z,15.20
2019-05-01T17:42:13.441Z,15.10
2019-05-01T17:44:55.918Z,15.10
2019-05-01T17:47:27.812Z,15.10
2019-05-01T17:50:02.954Z,15.10
2019-05-01T17:52:40.132Z,15.10
2019-05-01T17:55:15.419Z,15.00
2019-05-01T17:57:52.410Z,15.00
2019-05-01T18:00:45.813Z,14.90
2019-05-01T18:03:31.373Z,14.80
2019-05-01T18:06:08.185Z,14.80
2019-05-01T18:09:02.212Z,14.70
2019-05-01T18:11:29.314Z,14.70
2019-05-01T18:14:07.952Z,14.70
2019-05-01T18:16:45.460Z,14.70
2019-05-01T18:19:20.512Z,14.70
2019-05-01T18:22:13.523Z,14.70
2019-05-01T18:25:11.655Z,14.70
2019-05-01T18:28:30.093Z,14.60
2019-05-01T18:31:03.855Z,14.60
2019-05-01T18:33:34.873Z,14.50
2019-05-01T18:36:19.948Z,14.50
2019-05-01T18:39:00.309Z,14.50
2019-05-01T18:41:58.695Z,14.40
2019-05-01T18:44:33.769Z,14.40
2019-05-01T18:47:06.718Z,14.30
2019-05-01T18:50:03.933Z,14.30
2019-05-01T18:52:39.920Z,14.30
2019-05-01T18:55:13.375Z,14.20
2019-05-01T18:57:54.296Z,14.10
2019-05-01T19:00:41.826Z,14.10
2019-05-01T19:03:24.508Z,14.00
2019-05-01T19:06:00.527Z,14.00
2019-05-01T19:08:36.294Z,14.00
2019-05-01T19:11:12.910Z,14.00
2019-05-01T19:13:44.178Z,13.90
2019-05-01T19:16:18.488Z,13.90
2019-05-01T19:18:48.901Z,13.90
2019-05-01T19:21:23.645Z,13.80
2019-05-01T19:24:00.440Z,13.80
2019-05-01T19:26:31.494Z,13.80
2019-05-01T19:29:04.755Z,13.80
2019-05-01T19:31:40.485Z,13.80
2019-05-01T19:34:12.732Z,13.80
2019-05-01T19:36:58.334Z,13.70
2019-05-01T19:39:43.782Z,13.70
2019-05-01T19:42:33.439Z,13.70
2019-05-01T19:45:24.125Z,13.60
2019-05-01T19:47:59.345Z,13.60
2019-05-01T19:50:47.565Z,13.50
2019-05-01T19:53:39.561Z,13.50
2019-05-01T19:56:46.304Z,13.50
2019-05-01T19:59:24.459Z,13.50
2019-05-01T20:02:09.581Z,13.50
2019-05-01T20:04:56.469Z,13.60
2019-05-01T20:07:35.208Z,13.60
2019-05-01T20:10:11.235Z,13.70
2019-05-01T20:13:00.015Z,13.80
2019-05-01T20:15:47.723Z,13.80
2019-05-01T20:18:20.911Z,13.90
2019-05-01T20:21:08.252Z,13.90
2019-05-01T20:23:41.347Z,13.90
2019-05-01T20:26:16.064Z,13.90
2019-05-01T20:28:51.535Z,13.80
2019-05-01T20:31:28.250Z,13.80
2019-05-01T20:33:59.283Z,13.80
2019-05-01T20:36:29.938Z,13.90
2019-05-01T20:39:16.024Z,13.80
2019-05-01T20:42:22.911Z,13.80
2019-05-01T20:45:04.343Z,13.90
2019-05-01T20:47:35.563Z,13.90
2019-05-01T20:50:09.926Z,13.80
2019-05-01T20:52:52.277Z,13.70
2019-05-01T20:55:23.172Z,13.70
2019-05-01T20:58:16.082Z,13.70
2019-05-01T21:01:29.848Z,13.60
2019-05-01T21:04:24.561Z,13.50
2019-05-01T21:07:31.313Z,13.50
2019-05-01T21:10:08.810Z,13.50
2019-05-01T21:12:39.965Z,13.50
2019-05-01T21:15:13.160Z,13.50
2019-05-01T21:17:48.790Z,13.40
2019-05-01T21:20:27.037Z,13.30
2019-05-01T21:23:05.719Z,13.30
2019-05-01T21:25:35.075Z,13.20
2019-05-01T21:28:05.694Z,13.00
2019-05-01T21:30:38.676Z,12.90
2019-05-01T21:33:11.507Z,12.80
2019-05-01T21:35:44.566Z,12.80
2019-05-01T21:38:24.276Z,12.70
2019-05-01T21:41:06.947Z,12.60
2019-05-01T21:43:40.278Z,12.50
2019-05-01T21:46:12.450Z,12.50
2019-05-01T21:48:43.550Z,12.40
2019-05-01T21:51:18.423Z,12.30
2019-05-01T21:53:52.846Z,12.20
2019-05-01T21:56:24.967Z,12.10
2019-05-01T21:59:09.995Z,12.00
2019-05-01T22:01:42.551Z,11.90
2019-05-01T22:04:13.021Z,11.80
2019-05-01T22:06:46.690Z,11.70
2019-05-01T22:09:22.449Z,11.60
2019-05-01T22:11:52.667Z,11.60
2019-05-01T22:14:41.819Z,11.50
2019-05-01T22:17:37.769Z,11.40
2019-05-01T22:20:14.760Z,11.40
2019-05-01T22:22:52.375Z,11.30
2019-05-01T22:25:27.032Z,11.30
2019-05-01T22:28:18.794Z,11.20
2019-05-01T22:31:09.384Z,11.20
2019-05-01T22:33:40.521Z,11.10
2019-05-01T22:36:10.727Z,11.10
2019-05-01T22:38:46.470Z,11.10
2019-05-01T22:41:15.689Z,11.10
2019-05-01T22:43:46.384Z,11.00
2019-05-01T22:46:33.725Z,10.90
2019-05-01T22:49:02.889Z,10.90
2019-05-01T22:51:33.098Z,10.80
2019-05-01T22:54:03.247Z,10.70
2019-05-01T22:56:33.301Z,10.60
2019-05-01T22:59:03.309Z,10.60
2019-05-01T23:01:34.535Z,10.50
2019-05-01T23:04:16.977Z,10.50
2019-05-01T23:06:41.733Z,10.40
2019-05-01T23:09:14.234Z,10.40
2019-05-01T23:11:45.741Z,10.30
2019-05-01T23:14:16.002Z,10.30
2019-05-01T23:17:03.345Z,10.30
2019-05-01T23:19:31.290Z,10.30
2019-05-01T23:22:01.685Z,10.30
2019-05-01T23:24:31.637Z,10.30
2019-05-01T23:27:01.672Z,10.30
2019-05-01T23:29:34.002Z,10.30
2019-05-01T23:32:06.971Z,10.20
2019-05-01T23:34:40.440Z,10.20
2019-05-01T23:37:10.224Z,10.10
2019-05-01T23:39:45.778Z,10.10
2019-05-01T23:42:15.716Z,10.00
2019-05-01T23:44:47.091Z,10.20
2019-05-01T23:47:18.127Z,10.10
2019-05-01T23:49:52.590Z,10.10
2019-05-01T23:52:19.776Z,10.00
2019-05-01T23:54:52.920Z,10.00
2019-05-01T23:57:23.087Z,9.90
2019-05-01T23:59:52.891Z,9.90
